Aviation Digital Data Service (ADDS)

Output produced by METARs form (1300 UTC 07 February 2016)
found at http://aviationweather.gov/adds/metars/
 
KLBE 071120Z 0712/0812 VRB03KT P6SM SKC 
     FM071800 21007G15KT P6SM BKN250 
     FM080400 VRB04KT P6SM BKN120